createdAt,value
2023-04-25T00:00:21.713Z,5.00
2023-04-25T00:02:49.457Z,5.23
2023-04-25T00:05:17.332Z,5.17
2023-04-25T00:07:44.965Z,6.37
2023-04-25T00:10:12.584Z,5.47
2023-04-25T00:12:40.135Z,5.80
2023-04-25T00:15:08.139Z,4.90
2023-04-25T00:17:35.778Z,4.83
2023-04-25T00:20:03.678Z,4.70
2023-04-25T00:22:31.178Z,4.50
2023-04-25T00:24:58.854Z,5.87
2023-04-25T00:27:26.370Z,4.87
2023-04-25T00:29:53.933Z,5.03
2023-04-25T00:32:21.498Z,5.43
2023-04-25T00:34:49.061Z,4.67
2023-04-25T00:37:16.604Z,5.53
2023-04-25T00:39:44.237Z,5.00
2023-04-25T00:42:11.808Z,4.87
2023-04-25T00:44:39.892Z,5.17
2023-04-25T00:47:07.794Z,5.27
2023-04-25T00:49:35.469Z,4.83
2023-04-25T00:52:02.997Z,5.40
2023-04-25T00:54:30.803Z,4.87
2023-04-25T00:56:58.532Z,4.50
2023-04-25T00:59:27.076Z,4.77
2023-04-25T01:01:54.736Z,5.80
2023-04-25T01:04:22.574Z,4.83
2023-04-25T01:06:50.356Z,5.20
2023-04-25T01:09:17.992Z,4.90
2023-04-25T01:11:45.541Z,4.57
2023-04-25T01:14:13.101Z,4.83
2023-04-25T01:16:40.720Z,5.77
2023-04-25T01:19:10.940Z,5.20
2023-04-25T01:21:38.538Z,4.33
2023-04-25T01:24:06.590Z,5.10
2023-04-25T01:26:34.835Z,5.17
2023-04-25T01:29:02.401Z,4.50
2023-04-25T01:31:30.227Z,4.83
2023-04-25T01:33:57.807Z,4.50
2023-04-25T01:36:25.378Z,4.90
2023-04-25T01:38:52.955Z,4.60
2023-04-25T01:41:20.572Z,5.07
2023-04-25T01:43:48.208Z,4.83
2023-04-25T01:46:15.884Z,4.30
2023-04-25T01:48:43.427Z,4.53
2023-04-25T01:51:11.067Z,3.43
2023-04-25T01:53:39.091Z,4.50
2023-04-25T01:56:07.007Z,4.87
2023-04-25T01:58:34.549Z,4.80
2023-04-25T02:01:02.124Z,3.80
2023-04-25T02:03:29.772Z,4.07
2023-04-25T02:05:57.743Z,4.33
2023-04-25T02:08:25.268Z,4.17
2023-04-25T02:10:52.825Z,4.37
2023-04-25T02:13:20.343Z,4.53
2023-04-25T02:15:47.893Z,4.30
2023-04-25T02:18:15.523Z,5.07
2023-04-25T02:20:43.118Z,4.47
2023-04-25T02:23:10.625Z,4.73
2023-04-25T02:25:38.154Z,4.17
2023-04-25T02:28:05.677Z,4.00
2023-04-25T02:30:33.246Z,3.77
2023-04-25T02:33:00.888Z,4.03
2023-04-25T02:35:28.581Z,4.50
2023-04-25T02:37:56.050Z,4.70
2023-04-25T02:40:23.598Z,4.80
2023-04-25T02:42:51.082Z,4.63
2023-04-25T02:45:18.680Z,4.80
2023-04-25T02:47:46.167Z,4.57
2023-04-25T02:50:13.707Z,6.20
2023-04-25T02:52:41.196Z,4.30
2023-04-25T02:55:08.965Z,5.10
2023-04-25T02:57:36.468Z,4.87
2023-04-25T03:00:04.260Z,5.73
2023-04-25T03:02:31.825Z,5.40
2023-04-25T03:04:59.449Z,5.07
2023-04-25T03:07:26.958Z,4.83
2023-04-25T03:09:54.568Z,5.37
2023-04-25T03:12:22.094Z,5.07
2023-04-25T03:14:49.632Z,5.17
2023-04-25T03:17:17.151Z,5.13
2023-04-25T03:19:44.720Z,5.07
2023-04-25T03:22:12.231Z,5.47
2023-04-25T03:24:39.798Z,5.63
2023-04-25T03:27:07.324Z,5.80
2023-04-25T03:29:34.859Z,5.20
2023-04-25T03:32:02.443Z,5.20
2023-04-25T03:34:30.037Z,5.67
2023-04-25T03:36:57.756Z,5.60
2023-04-25T03:39:25.408Z,4.90
2023-04-25T03:41:52.992Z,5.50
2023-04-25T03:44:20.540Z,5.37
2023-04-25T03:46:48.063Z,4.97
2023-04-25T03:49:17.754Z,5.07
2023-04-25T03:51:46.696Z,5.20
2023-04-25T03:54:14.231Z,5.07
2023-04-25T03:56:41.780Z,4.80
2023-04-25T03:59:09.307Z,5.07
2023-04-25T04:01:36.844Z,5.10
2023-04-25T04:04:04.685Z,5.83
2023-04-25T04:06:32.363Z,6.57
2023-04-25T04:08:59.873Z,5.80
2023-04-25T04:11:27.504Z,5.57
2023-04-25T04:13:55.046Z,5.80
2023-04-25T04:16:22.632Z,5.80
2023-04-25T04:18:50.157Z,5.73
2023-04-25T04:21:17.760Z,6.03
2023-04-25T04:23:45.247Z,6.13
2023-04-25T04:26:12.847Z,6.50
2023-04-25T04:28:40.338Z,4.83
2023-04-25T04:31:07.978Z,6.27
2023-04-25T04:33:35.505Z,5.53
2023-04-25T04:36:03.036Z,5.90
2023-04-25T04:38:30.877Z,5.80
2023-04-25T04:40:58.422Z,5.33
2023-04-25T04:43:25.906Z,5.67
2023-04-25T04:45:53.533Z,5.17
2023-04-25T04:48:21.060Z,4.93
2023-04-25T04:50:48.702Z,5.57
2023-04-25T04:53:16.190Z,5.90
2023-04-25T04:55:43.748Z,5.57
2023-04-25T04:58:11.283Z,5.93
2023-04-25T05:00:38.954Z,5.97
2023-04-25T05:03:06.654Z,5.37
2023-04-25T05:05:34.311Z,5.70
2023-04-25T05:08:01.768Z,4.97
2023-04-25T05:10:29.287Z,5.47
2023-04-25T05:12:56.767Z,5.43
2023-04-25T05:15:24.365Z,5.07
2023-04-25T05:17:51.897Z,5.63
2023-04-25T05:20:19.511Z,4.47
2023-04-25T05:22:47.006Z,5.20
2023-04-25T05:25:14.664Z,4.50
2023-04-25T05:27:42.168Z,4.70
2023-04-25T05:30:09.986Z,4.20
2023-04-25T05:32:37.626Z,5.10
2023-04-25T05:35:05.364Z,5.17
2023-04-25T05:37:32.870Z,5.10
2023-04-25T05:40:01.056Z,4.00
2023-04-25T05:42:28.590Z,4.17
2023-04-25T05:44:56.185Z,4.07
2023-04-25T05:47:23.726Z,4.27
2023-04-25T05:49:51.300Z,5.00
2023-04-25T05:52:18.906Z,4.27
2023-04-25T05:54:46.498Z,4.33
2023-04-25T05:57:26.858Z,4.77
2023-04-25T05:59:54.817Z,5.60
2023-04-25T06:02:23.010Z,4.50
2023-04-25T06:04:51.871Z,4.60
2023-04-25T06:07:20.322Z,4.07
2023-04-25T06:09:47.970Z,3.57
2023-04-25T06:12:15.495Z,4.00
2023-04-25T06:14:43.155Z,4.00
2023-04-25T06:17:10.830Z,4.50
2023-04-25T06:19:38.409Z,3.77
2023-04-25T06:22:06.109Z,3.80
2023-04-25T06:24:33.802Z,3.73
2023-04-25T06:27:01.363Z,3.83
2023-04-25T06:29:28.940Z,4.80
2023-04-25T06:31:56.425Z,4.30
2023-04-25T06:34:23.977Z,3.67
2023-04-25T06:36:51.472Z,3.43
2023-04-25T06:39:19.022Z,4.40
2023-04-25T06:41:46.566Z,3.40
2023-04-25T06:44:14.150Z,4.40
2023-04-25T06:46:41.737Z,3.37
2023-04-25T06:49:09.342Z,3.67
2023-04-25T06:51:36.931Z,3.43
2023-04-25T06:54:04.519Z,3.43
2023-04-25T06:56:32.087Z,5.40
2023-04-25T06:58:59.645Z,2.77
2023-04-25T07:01:29.389Z,3.70
2023-04-25T07:03:57.346Z,3.23
2023-04-25T07:06:25.095Z,2.60
2023-04-25T07:08:55.519Z,2.10
2023-04-25T07:11:23.169Z,2.50
2023-04-25T07:13:50.812Z,3.10
2023-04-25T07:16:18.568Z,2.43
2023-04-25T07:18:48.714Z,1.97
2023-04-25T07:21:20.823Z,2.60
2023-04-25T07:23:48.432Z,2.57
2023-04-25T07:26:16.256Z,4.07
2023-04-25T07:28:46.466Z,3.17
2023-04-25T07:31:13.984Z,3.07
2023-04-25T07:33:41.498Z,3.23
2023-04-25T07:36:09.374Z,3.13
2023-04-25T07:38:36.855Z,3.97
2023-04-25T07:41:05.001Z,2.83
2023-04-25T07:43:32.558Z,2.57
2023-04-25T07:46:00.235Z,3.47
2023-04-25T07:48:27.839Z,3.57
2023-04-25T07:50:55.419Z,3.67
2023-04-25T07:53:23.113Z,2.40
2023-04-25T07:55:51.615Z,2.90
2023-04-25T07:58:19.156Z,3.47
2023-04-25T08:00:46.790Z,2.17
2023-04-25T08:03:14.584Z,2.13
2023-04-25T08:05:42.445Z,2.00
2023-04-25T08:08:10.150Z,2.53
2023-04-25T08:10:37.734Z,2.10
2023-04-25T08:13:08.403Z,2.67
2023-04-25T08:15:36.123Z,2.37
2023-04-25T08:18:03.857Z,1.97
2023-04-25T08:20:31.582Z,2.10
2023-04-25T08:22:59.125Z,2.50
2023-04-25T08:25:26.810Z,2.47
2023-04-25T08:27:54.524Z,2.23
2023-04-25T08:30:22.465Z,2.90
2023-04-25T08:32:50.209Z,2.63
2023-04-25T08:35:17.940Z,2.10
2023-04-25T08:37:45.621Z,2.80
2023-04-25T08:40:13.938Z,2.70
2023-04-25T08:42:44.685Z,2.20
2023-04-25T08:45:12.476Z,2.87
2023-04-25T08:47:41.873Z,2.77
2023-04-25T08:50:09.623Z,2.17
2023-04-25T08:52:38.293Z,2.33
2023-04-25T08:55:07.545Z,2.73
2023-04-25T08:57:35.238Z,1.83
2023-04-25T09:00:03.570Z,2.08
2023-04-25T09:02:31.525Z,2.13
2023-04-25T09:04:59.279Z,1.77
2023-04-25T09:07:26.942Z,2.20
2023-04-25T09:09:54.527Z,2.50
2023-04-25T09:12:22.041Z,1.80
2023-04-25T09:15:02.916Z,2.53
2023-04-25T09:17:30.490Z,2.50
2023-04-25T09:20:07.066Z,2.30
2023-04-25T09:22:34.667Z,2.03
2023-04-25T09:25:04.455Z,2.10
2023-04-25T09:27:32.712Z,1.70
2023-04-25T09:30:00.789Z,1.77
2023-04-25T09:32:28.762Z,1.80
2023-04-25T09:34:59.695Z,1.60
2023-04-25T09:37:28.441Z,1.60
2023-04-25T09:39:57.041Z,2.17
2023-04-25T09:42:25.525Z,2.07
2023-04-25T09:44:53.900Z,1.80
2023-04-25T09:47:21.744Z,1.40
2023-04-25T09:49:49.309Z,2.10
2023-04-25T09:52:23.908Z,1.73
2023-04-25T09:54:53.149Z,1.90
2023-04-25T09:57:22.214Z,1.90
2023-04-25T09:59:51.038Z,2.00
2023-04-25T10:02:23.664Z,1.83
2023-04-25T10:04:52.817Z,2.10
2023-04-25T10:07:21.252Z,1.83
2023-04-25T10:09:54.047Z,2.00
2023-04-25T10:12:21.773Z,2.73
2023-04-25T10:14:49.293Z,1.93
2023-04-25T10:17:17.040Z,1.93
2023-04-25T10:19:44.812Z,1.90
2023-04-25T10:22:24.815Z,1.70
2023-04-25T10:24:52.631Z,2.70
2023-04-25T10:27:20.223Z,1.80
2023-04-25T10:30:01.640Z,2.00
2023-04-25T10:32:31.226Z,2.03
2023-04-25T10:34:59.052Z,2.17
2023-04-25T10:37:26.631Z,1.83
2023-04-25T10:39:54.187Z,2.53
2023-04-25T10:42:21.761Z,2.03
2023-04-25T10:45:02.658Z,2.87
2023-04-25T10:47:37.044Z,2.20
2023-04-25T10:50:09.418Z,2.23
2023-04-25T10:52:40.210Z,2.33
2023-04-25T10:55:07.972Z,1.80
2023-04-25T10:57:42.400Z,1.73
2023-04-25T11:00:16.845Z,1.30
2023-04-25T11:02:48.644Z,1.70
2023-04-25T11:05:21.805Z,1.40
2023-04-25T11:08:00.000Z,2.00
2023-04-25T11:10:33.364Z,1.80
2023-04-25T11:13:00.890Z,1.93
2023-04-25T11:15:28.582Z,2.33
2023-04-25T11:17:56.723Z,1.50
2023-04-25T11:20:26.784Z,2.10
2023-04-25T11:22:54.364Z,1.80
2023-04-25T11:25:22.000Z,1.60
2023-04-25T11:27:56.767Z,1.83
2023-04-25T11:30:24.890Z,2.23
2023-04-25T11:32:52.720Z,1.90
2023-04-25T11:35:21.396Z,2.07
2023-04-25T11:37:49.121Z,1.83
2023-04-25T11:40:17.100Z,2.37
2023-04-25T11:42:45.916Z,2.13
2023-04-25T11:45:13.853Z,2.33
2023-04-25T11:47:41.541Z,2.27
2023-04-25T11:50:09.899Z,2.53
2023-04-25T11:52:38.417Z,2.10
2023-04-25T11:55:08.043Z,1.83
2023-04-25T11:57:36.986Z,2.00
2023-04-25T12:00:22.847Z,1.40
2023-04-25T12:02:54.401Z,1.53
2023-04-25T12:07:56.370Z,1.80
2023-04-25T12:10:25.664Z,1.37
2023-04-25T12:12:53.282Z,1.43
2023-04-25T12:15:25.245Z,1.63
2023-04-25T12:17:53.944Z,1.93
2023-04-25T12:20:22.972Z,1.53
2023-04-25T12:22:51.122Z,2.23
2023-04-25T12:25:37.755Z,1.83
2023-04-25T12:28:18.779Z,1.97
2023-04-25T12:30:58.351Z,1.63
2023-04-25T12:33:26.754Z,2.10
2023-04-25T12:35:54.841Z,1.60
2023-04-25T12:38:26.891Z,2.00
2023-04-25T12:40:54.991Z,1.77
2023-04-25T12:43:22.633Z,2.00
2023-04-25T12:45:50.694Z,2.23
2023-04-25T12:48:18.569Z,1.83
2023-04-25T12:50:46.753Z,2.23
2023-04-25T12:53:14.331Z,2.30
2023-04-25T12:55:42.064Z,2.20
2023-04-25T12:58:09.541Z,2.13
2023-04-25T13:00:37.159Z,2.13
2023-04-25T13:03:04.942Z,2.10
2023-04-25T13:05:32.586Z,2.20
2023-04-25T13:08:00.143Z,1.70
2023-04-25T13:10:27.702Z,1.30
2023-04-25T13:12:55.197Z,1.20
2023-04-25T13:15:22.824Z,2.17
2023-04-25T13:17:50.430Z,1.40
2023-04-25T13:20:18.038Z,1.67
2023-04-25T13:22:45.603Z,1.30
2023-04-25T13:25:13.274Z,1.27
2023-04-25T13:27:40.824Z,1.50
2023-04-25T13:30:08.522Z,1.50
2023-04-25T13:32:36.500Z,2.00
2023-04-25T13:35:10.506Z,1.37
2023-04-25T13:37:39.153Z,1.80
2023-04-25T13:40:08.149Z,1.60
2023-04-25T13:42:35.811Z,1.47
2023-04-25T13:45:03.383Z,2.08
2023-04-25T13:47:31.459Z,2.20
2023-04-25T13:49:59.013Z,1.63
2023-04-25T13:52:26.643Z,1.20
2023-04-25T13:54:54.191Z,1.70
2023-04-25T13:57:21.908Z,1.90
2023-04-25T13:59:49.405Z,1.90
2023-04-25T14:02:17.046Z,1.83
2023-04-25T14:04:44.623Z,2.00
2023-04-25T14:07:12.293Z,1.80
2023-04-25T14:09:39.836Z,2.10
2023-04-25T14:12:07.407Z,1.70
2023-04-25T14:14:35.036Z,1.90
2023-04-25T14:17:02.605Z,1.67
2023-04-25T14:19:30.080Z,1.60
2023-04-25T14:21:57.675Z,1.40
2023-04-25T14:24:25.175Z,1.37
2023-04-25T14:26:52.791Z,1.83
2023-04-25T14:29:20.687Z,1.60
2023-04-25T14:31:48.515Z,1.57
2023-04-25T14:34:16.155Z,1.60
2023-04-25T14:36:43.781Z,1.60
2023-04-25T14:39:11.514Z,1.50
2023-04-25T14:41:39.165Z,1.30
2023-04-25T14:44:06.779Z,1.40
2023-04-25T14:46:34.622Z,1.60
2023-04-25T14:49:02.646Z,1.27
2023-04-25T14:51:30.428Z,1.20
2023-04-25T14:53:58.052Z,1.20
2023-04-25T14:56:25.640Z,1.53
2023-04-25T14:58:53.151Z,1.50
2023-04-25T15:01:20.820Z,1.50
2023-04-25T15:03:48.685Z,1.07
2023-04-25T15:06:16.497Z,1.20
2023-04-25T15:08:44.055Z,1.73
2023-04-25T15:11:11.693Z,1.50
2023-04-25T15:13:39.258Z,1.40
2023-04-25T15:16:07.173Z,1.30
2023-04-25T15:18:34.713Z,1.90
2023-04-25T15:21:02.359Z,1.87
2023-04-25T15:23:30.153Z,1.57
2023-04-25T15:25:57.799Z,1.57
2023-04-25T15:28:25.369Z,1.50
2023-04-25T15:30:53.009Z,1.37
2023-04-25T15:33:20.577Z,1.27
2023-04-25T15:35:50.809Z,1.80
2023-04-25T15:38:18.585Z,1.63
2023-04-25T15:40:46.225Z,1.77
2023-04-25T15:43:13.919Z,1.50
2023-04-25T15:45:41.430Z,1.77
2023-04-25T15:48:09.289Z,1.60
2023-04-25T15:50:37.067Z,1.50
2023-04-25T15:53:07.020Z,1.90
2023-04-25T15:55:35.419Z,1.80
2023-04-25T15:58:03.092Z,2.00
2023-04-25T16:00:30.720Z,1.83
2023-04-25T16:02:58.683Z,1.70
2023-04-25T16:05:26.577Z,1.57
2023-04-25T16:07:54.202Z,1.20
2023-04-25T16:10:21.914Z,2.03
2023-04-25T16:12:50.089Z,1.43
2023-04-25T16:15:18.309Z,1.60
2023-04-25T16:17:45.957Z,1.20
2023-04-25T16:20:14.023Z,1.53
2023-04-25T16:22:42.309Z,1.40
2023-04-25T16:25:10.449Z,1.17
2023-04-25T16:27:38.414Z,1.87
2023-04-25T16:30:06.935Z,1.30
2023-04-25T16:32:34.753Z,1.30
2023-04-25T16:35:02.406Z,1.37
2023-04-25T16:37:29.918Z,1.30
2023-04-25T16:39:58.996Z,1.17
2023-04-25T16:42:26.544Z,1.10
2023-04-25T16:44:54.148Z,1.20
2023-04-25T16:47:21.736Z,1.20
2023-04-25T16:49:49.441Z,1.20
2023-04-25T16:52:17.016Z,1.60
2023-04-25T16:54:44.673Z,1.00
2023-04-25T16:57:12.205Z,1.27
2023-04-25T16:59:42.151Z,1.37
2023-04-25T17:02:12.562Z,1.10
2023-04-25T17:04:40.622Z,1.87
2023-04-25T17:07:08.936Z,1.53
2023-04-25T17:09:36.599Z,1.30
2023-04-25T17:12:06.391Z,1.30
2023-04-25T17:14:35.047Z,1.40
2023-04-25T17:17:02.824Z,1.33
2023-04-25T17:19:30.996Z,1.30
2023-04-25T17:21:58.609Z,1.60
2023-04-25T17:24:26.284Z,1.20
2023-04-25T17:26:53.836Z,1.30
2023-04-25T17:29:21.446Z,1.70
2023-04-25T17:31:50.154Z,1.40
2023-04-25T17:34:17.741Z,1.23
2023-04-25T17:36:45.820Z,1.37
2023-04-25T17:39:14.262Z,1.20
2023-04-25T17:41:41.820Z,1.50
2023-04-25T17:44:09.353Z,1.60
2023-04-25T17:46:37.139Z,1.30
2023-04-25T17:49:04.819Z,1.20
2023-04-25T17:51:32.388Z,1.37
2023-04-25T17:53:59.994Z,1.57
2023-04-25T17:56:27.992Z,1.47
2023-04-25T17:58:56.001Z,1.00
2023-04-25T18:01:23.885Z,1.30
2023-04-25T18:03:52.003Z,1.83
2023-04-25T18:06:19.829Z,1.27
2023-04-25T18:08:47.812Z,2.07
2023-04-25T18:11:15.443Z,1.30
2023-04-25T18:13:43.127Z,1.93
2023-04-25T18:16:10.775Z,1.53
2023-04-25T18:18:38.390Z,2.40
2023-04-25T18:21:06.255Z,1.40
2023-04-25T18:23:34.226Z,1.50
2023-04-25T18:26:04.962Z,1.77
2023-04-25T18:28:32.588Z,2.00
2023-04-25T18:31:00.135Z,1.57
2023-04-25T18:33:27.798Z,1.60
2023-04-25T18:35:59.336Z,1.87
2023-04-25T18:41:14.965Z,2.00
2023-04-25T18:43:45.882Z,2.40
2023-04-25T18:46:13.565Z,1.93
2023-04-25T18:48:41.208Z,1.60
2023-04-25T18:51:08.898Z,1.43
2023-04-25T18:53:39.583Z,1.70
2023-04-25T18:56:07.481Z,1.87
2023-04-25T18:58:35.163Z,1.43
2023-04-25T19:01:02.772Z,1.63
2023-04-25T19:03:30.561Z,2.27
2023-04-25T19:05:58.291Z,1.90
2023-04-25T19:08:26.915Z,2.17
2023-04-25T19:10:54.758Z,2.87
2023-04-25T19:13:22.350Z,1.63
2023-04-25T19:15:51.223Z,2.00
2023-04-25T19:18:18.777Z,2.03
2023-04-25T19:20:46.561Z,1.80
2023-04-25T19:23:14.158Z,2.33
2023-04-25T19:25:41.754Z,1.70
2023-04-25T19:28:09.417Z,1.53
2023-04-25T19:30:37.106Z,2.20
2023-04-25T19:33:04.799Z,1.93
2023-04-25T19:35:32.402Z,1.60
2023-04-25T19:38:00.284Z,1.80
2023-04-25T19:40:27.812Z,2.33
2023-04-25T19:42:55.396Z,1.70
2023-04-25T19:45:23.134Z,1.80
2023-04-25T19:47:50.706Z,1.97
2023-04-25T19:50:18.312Z,1.30
2023-04-25T19:52:45.955Z,1.77
2023-04-25T19:55:13.585Z,1.60
2023-04-25T19:57:41.070Z,2.00
2023-04-25T20:00:11.306Z,1.93
2023-04-25T20:02:39.263Z,1.63
2023-04-25T20:05:08.017Z,1.70
2023-04-25T20:07:35.960Z,1.77
2023-04-25T20:10:03.648Z,1.60
2023-04-25T20:12:31.246Z,1.70
2023-04-25T20:14:58.763Z,2.10
2023-04-25T20:17:29.353Z,1.67
2023-04-25T20:19:56.929Z,1.80
2023-04-25T20:22:24.512Z,2.13
2023-04-25T20:24:52.392Z,1.97
2023-04-25T20:27:19.877Z,1.83
2023-04-25T20:29:47.482Z,2.10
2023-04-25T20:32:15.101Z,1.93
2023-04-25T20:34:42.757Z,1.93
2023-04-25T20:37:10.357Z,1.83
2023-04-25T20:39:37.939Z,2.43
2023-04-25T20:42:05.511Z,2.03
2023-04-25T20:44:33.046Z,2.50
2023-04-25T20:47:00.650Z,2.10
2023-04-25T20:49:28.193Z,2.43
2023-04-25T20:51:55.747Z,2.23
2023-04-25T20:54:23.322Z,2.60
2023-04-25T20:56:50.887Z,2.50
2023-04-25T20:59:18.500Z,2.03
2023-04-25T21:01:46.077Z,2.13
2023-04-25T21:04:13.885Z,2.63
2023-04-25T21:06:41.603Z,2.37
2023-04-25T21:09:09.318Z,2.30
2023-04-25T21:11:36.960Z,2.27
2023-04-25T21:14:04.722Z,2.50
2023-04-25T21:16:34.843Z,2.40
2023-04-25T21:19:02.830Z,2.50
2023-04-25T21:21:30.517Z,2.13
2023-04-25T21:23:58.380Z,2.80
2023-04-25T21:26:26.113Z,2.30
2023-04-25T21:28:54.927Z,2.23
2023-04-25T21:31:22.961Z,2.23
2023-04-25T21:33:50.551Z,2.27
2023-04-25T21:36:18.187Z,2.30
2023-04-25T21:38:49.050Z,2.93
2023-04-25T21:41:16.800Z,2.43
2023-04-25T21:43:44.354Z,1.90
2023-04-25T21:46:22.986Z,2.63
2023-04-25T21:48:51.615Z,2.43
2023-04-25T21:51:19.507Z,2.53
2023-04-25T21:53:47.410Z,2.43
2023-04-25T21:56:14.927Z,2.33
2023-04-25T21:58:42.536Z,2.80
2023-04-25T22:01:10.153Z,2.67
2023-04-25T22:03:37.794Z,2.53
2023-04-25T22:06:05.576Z,2.40
2023-04-25T22:08:33.160Z,2.53
2023-04-25T22:11:02.678Z,2.57
2023-04-25T22:13:31.629Z,2.47
2023-04-25T22:15:59.296Z,2.83
2023-04-25T22:18:26.946Z,2.90
2023-04-25T22:20:54.593Z,2.63
2023-04-25T22:23:22.177Z,2.67
2023-04-25T22:25:49.721Z,2.53
2023-04-25T22:28:17.301Z,2.53
2023-04-25T22:30:45.026Z,2.30
2023-04-25T22:33:12.648Z,2.80
2023-04-25T22:35:40.501Z,2.47
2023-04-25T22:38:08.107Z,2.00
2023-04-25T22:40:35.712Z,2.63
2023-04-25T22:43:03.427Z,2.50
2023-04-25T22:45:31.120Z,2.60
2023-04-25T22:47:58.870Z,2.50
2023-04-25T22:50:26.481Z,2.33
2023-04-25T22:52:54.073Z,2.60
2023-04-25T22:55:21.649Z,2.73
2023-04-25T22:57:49.353Z,2.87
2023-04-25T23:00:17.033Z,3.10
2023-04-25T23:02:45.104Z,3.13
2023-04-25T23:05:13.418Z,3.13
2023-04-25T23:07:41.479Z,3.23
2023-04-25T23:10:09.449Z,3.03
2023-04-25T23:12:37.087Z,3.33
2023-04-25T23:15:04.769Z,3.00
2023-04-25T23:17:32.797Z,3.43
2023-04-25T23:20:00.381Z,3.10
2023-04-25T23:22:28.069Z,3.20
2023-04-25T23:24:55.580Z,2.73
2023-04-25T23:27:23.126Z,2.80
2023-04-25T23:29:53.644Z,3.30
2023-04-25T23:32:21.593Z,3.20
2023-04-25T23:34:49.190Z,3.53
2023-04-25T23:37:16.794Z,3.67
2023-04-25T23:39:50.929Z,3.47
2023-04-25T23:42:18.828Z,3.47
2023-04-25T23:44:46.414Z,3.20
2023-04-25T23:47:14.349Z,3.87
2023-04-25T23:49:42.020Z,3.47
2023-04-25T23:52:09.645Z,3.80
2023-04-25T23:54:37.127Z,3.80
2023-04-25T23:57:04.745Z,3.20
2023-04-25T23:59:32.340Z,4.13
